Time;durP1;ratioP1;P1;durP2;ratioP2;P2;SDS_P1;SDS_P2;PMS_P1;PMS_P2;Temp;Humidity;BMP_temperature;BMP_pressure;BME280_temperature;BME280_humidity;BME280_pressure;Samples;Min_cycle;Max_cycle;Signal;HPM_P1;HPM_P2
2022/08/15 02:47:34;;;;;;;5.07;2.25;;;19.00;99.90;;;;;;5236552;23;88942;-68
2022/08/15 02:50:01;;;;;;;8.30;2.60;;;18.80;99.90;;;;;;4828207;29;86246;-72
2022/08/15 02:52:27;;;;;;;6.05;2.33;;;18.70;99.90;;;;;;4829044;29;87439;-72
2022/08/15 02:54:53;;;;;;;5.00;2.40;;;18.60;99.90;;;;;;4828567;29;86331;-70
2022/08/15 02:57:18;;;;;;;4.93;2.45;;;18.50;99.90;;;;;;4825043;29;86960;-70
2022/08/15 02:59:45;;;;;;;5.97;2.20;;;18.70;99.90;;;;;;4829467;29;85997;-70
2022/08/15 03:02:12;;;;;;;4.95;2.15;;;18.90;99.90;;;;;;4829581;29;86552;-73
2022/08/15 03:04:38;;;;;;;8.27;2.75;;;18.80;99.90;;;;;;4829696;29;86956;-71
2022/08/15 03:07:04;;;;;;;8.30;2.72;;;18.70;99.90;;;;;;4828457;29;88021;-72
2022/08/15 03:09:30;;;;;;;6.03;2.50;;;18.70;99.90;;;;;;4825045;29;86224;-73
2022/08/15 03:11:57;;;;;;;8.07;2.50;;;18.60;99.90;;;;;;4827992;29;89387;-72
2022/08/15 03:14:24;;;;;;;7.55;2.53;;;18.50;99.90;;;;;;4826683;29;87332;-75
2022/08/15 03:16:50;;;;;;;6.38;2.55;;;18.60;99.90;;;;;;4827426;29;86254;-75
2022/08/15 03:19:21;;;;;;;8.77;2.83;;;18.70;99.90;;;;;;4828737;29;86943;-70
2022/08/15 03:21:48;;;;;;;7.47;2.30;;;18.80;99.90;;;;;;4828241;29;87050;-70
2022/08/15 03:24:15;;;;;;;5.32;2.47;;;18.50;99.90;;;;;;4829127;29;86211;-71
2022/08/15 03:26:46;;;;;;;6.68;2.45;;;18.30;99.90;;;;;;4828660;29;86217;-72
2022/08/15 03:29:18;;;;;;;4.82;2.22;;;18.30;99.90;;;;;;4828771;29;86339;-69
2022/08/15 03:31:47;;;;;;;5.25;2.53;;;18.30;99.90;;;;;;4827526;29;88055;-70
2022/08/15 03:34:14;;;;;;;3.75;1.92;;;18.40;99.90;;;;;;4824976;29;86939;-70
2022/08/15 03:36:44;;;;;;;5.85;1.85;;;18.50;99.90;;;;;;4827182;29;86318;-70
2022/08/15 03:39:10;;;;;;;3.42;1.60;;;18.50;99.90;;;;;;4827780;29;86467;-69
2022/08/15 03:41:36;;;;;;;5.68;2.10;;;18.50;99.90;;;;;;4819046;29;87182;-75
2022/08/15 03:44:02;;;;;;;5.80;1.98;;;18.60;99.90;;;;;;4818061;29;87493;-70
2022/08/15 03:46:28;;;;;;;5.53;1.85;;;18.60;99.90;;;;;;4826768;29;86769;-69
2022/08/15 03:48:56;;;;;;;4.15;1.38;;;18.50;99.90;;;;;;4827942;29;85971;-69
2022/08/15 03:51:24;;;;;;;5.32;1.63;;;18.40;99.90;;;;;;4828523;29;86707;-69
2022/08/15 03:53:53;;;;;;;4.53;1.75;;;18.50;99.90;;;;;;4826248;29;87168;-70
2022/08/15 03:56:31;;;;;;;6.82;1.70;;;18.50;99.90;;;;;;4828604;29;87904;-72
2022/08/15 03:58:58;;;;;;;3.17;1.55;;;18.40;99.90;;;;;;4828587;29;86197;-70
2022/08/15 04:01:30;;;;;;;5.70;1.88;;;18.30;99.90;;;;;;4827219;29;86922;-71
2022/08/15 04:03:56;;;;;;;3.58;1.95;;;18.20;99.90;;;;;;4824941;29;86952;-71
2022/08/15 04:06:25;;;;;;;4.88;1.98;;;18.10;99.90;;;;;;4828599;29;86905;-72
2022/08/15 04:08:53;;;;;;;6.72;2.55;;;18.10;99.90;;;;;;4828113;29;86775;-71
2022/08/15 04:11:21;;;;;;;4.25;2.08;;;18.10;99.90;;;;;;4826784;29;86863;-71
2022/08/15 04:13:48;;;;;;;3.80;1.50;;;18.00;99.90;;;;;;4826691;29;87221;-70
2022/08/15 04:16:14;;;;;;;4.05;1.45;;;18.10;99.90;;;;;;4828822;29;86353;-70
2022/08/15 04:18:40;;;;;;;4.18;1.42;;;18.20;99.90;;;;;;4826195;29;86346;-71
2022/08/15 04:21:11;;;;;;;3.47;1.83;;;18.40;99.90;;;;;;4826487;29;87880;-72
2022/08/15 04:23:38;;;;;;;5.28;2.20;;;18.50;99.90;;;;;;4829933;29;87063;-72
2022/08/15 04:26:04;;;;;;;3.85;2.08;;;18.40;99.90;;;;;;4827506;29;86534;-71
2022/08/15 04:28:30;;;;;;;5.85;2.15;;;18.50;99.90;;;;;;4824264;29;86290;-72
2022/08/15 04:30:57;;;;;;;6.57;2.67;;;18.60;99.90;;;;;;4826848;29;87223;-70
2022/08/15 04:33:26;;;;;;;5.50;2.15;;;18.60;99.90;;;;;;4826106;29;87397;-71
2022/08/15 04:35:58;;;;;;;;;;;18.70;99.90;;;;;;4828776;29;86813;-70
2022/08/15 04:38:25;;;;;;;5.82;3.03;;;18.70;99.90;;;;;;4809313;29;86366;-72
2022/08/15 04:40:53;;;;;;;8.80;3.60;;;18.50;99.90;;;;;;4826895;29;87082;-71
2022/08/15 04:43:21;;;;;;;7.80;2.83;;;18.20;99.90;;;;;;4826229;29;86960;-73
2022/08/15 04:45:48;;;;;;;7.40;3.40;;;18.10;99.90;;;;;;4825654;29;87751;-72
2022/08/15 04:48:14;;;;;;;9.25;3.50;;;18.30;99.90;;;;;;4804801;29;88393;-71
2022/08/15 04:50:42;;;;;;;6.43;3.30;;;18.20;99.90;;;;;;4807994;29;86441;-72
2022/08/15 04:53:08;;;;;;;6.28;2.70;;;18.20;99.90;;;;;;4807938;29;88099;-72
2022/08/15 04:55:35;;;;;;;6.18;3.05;;;18.30;99.90;;;;;;4808256;29;86299;-72
2022/08/15 04:58:02;;;;;;;11.55;4.10;;;18.30;99.90;;;;;;4804950;29;86272;-69
2022/08/15 05:00:30;;;;;;;4.15;2.70;;;18.20;99.90;;;;;;4814228;29;87805;-70
2022/08/15 05:02:58;;;;;;;5.63;2.65;;;18.20;99.90;;;;;;4806325;29;86312;-72
2022/08/15 05:05:24;;;;;;;8.15;3.47;;;18.20;99.90;;;;;;4807242;29;86616;-72
2022/08/15 05:07:49;;;;;;;5.18;2.85;;;18.10;99.90;;;;;;4806907;29;86405;-71
2022/08/15 05:10:16;;;;;;;6.53;2.60;;;18.20;99.90;;;;;;4807934;29;89694;-70
2022/08/15 05:12:42;;;;;;;6.47;2.45;;;18.30;99.90;;;;;;4807707;29;92117;-70
2022/08/15 05:15:13;;;;;;;8.23;2.70;;;18.50;99.90;;;;;;4798301;29;86892;-73
2022/08/15 05:17:39;;;;;;;7.72;2.80;;;18.60;99.90;;;;;;4804586;29;87096;-71
2022/08/15 05:20:07;;;;;;;5.25;2.80;;;18.60;99.90;;;;;;4808576;29;87184;-72
2022/08/15 05:22:33;;;;;;;4.25;2.38;;;18.50;99.90;;;;;;4806775;29;86302;-70
2022/08/15 05:24:58;;;;;;;4.85;2.60;;;18.70;99.90;;;;;;4806757;29;86944;-69
2022/08/15 05:27:24;;;;;;;7.15;2.20;;;18.80;99.90;;;;;;4807942;29;86018;-70
2022/08/15 05:29:51;;;;;;;5.13;2.25;;;19.00;99.90;;;;;;4806753;29;86603;-71
2022/08/15 05:32:18;;;;;;;5.15;2.33;;;19.20;99.90;;;;;;4804267;29;87472;-70
2022/08/15 05:34:46;;;;;;;6.05;2.28;;;19.40;99.90;;;;;;4806067;29;87315;-76
2022/08/15 05:37:12;;;;;;;4.38;2.30;;;19.50;99.90;;;;;;4804554;29;86829;-71
2022/08/15 05:39:40;;;;;;;6.32;2.78;;;19.30;99.90;;;;;;4810398;29;87243;-71
2022/08/15 05:42:36;;;;;;;6.20;2.85;;;19.40;99.90;;;;;;4809838;29;86968;-69
2022/08/15 05:45:09;;;;;;;;;;;19.30;99.90;;;;;;4810638;29;86534;-70
2022/08/15 05:47:52;;;;;;;5.13;2.35;;;19.60;99.90;;;;;;4824157;29;86286;-73
2022/08/15 05:50:35;;;;;;;8.48;2.50;;;20.20;99.90;;;;;;4823803;29;86718;-70
2022/08/15 05:53:45;;;;;;;6.68;2.60;;;20.80;99.90;;;;;;4830518;29;86297;-69
2022/08/15 05:56:35;;;;;;;3.83;1.80;;;20.90;99.90;;;;;;4811121;29;86463;-70
2022/08/15 05:59:04;;;;;;;5.65;1.77;;;22.60;99.90;;;;;;4827241;29;86334;-71
2022/08/15 06:01:44;;;;;;;6.60;2.15;;;24.00;95.90;;;;;;4822804;29;87906;-69
2022/08/15 06:04:34;;;;;;;4.63;2.38;;;23.80;90.50;;;;;;4821180;29;88238;-72
2022/08/15 06:07:06;;;;;;;3.60;2.20;;;23.00;93.00;;;;;;4822339;29;87729;-71
2022/08/15 06:09:35;;;;;;;5.20;2.42;;;22.40;94.60;;;;;;4824678;29;86264;-70
2022/08/15 06:12:09;;;;;;;5.93;2.53;;;21.60;97.60;;;;;;4827757;29;87260;-70
2022/08/15 06:14:40;;;;;;;5.75;2.47;;;21.00;99.90;;;;;;4825193;29;87065;-70
2022/08/15 06:17:11;;;;;;;6.85;2.67;;;20.80;99.90;;;;;;4823729;29;87034;-70
2022/08/15 06:19:50;;;;;;;5.10;2.20;;;20.50;99.90;;;;;;4824285;29;86063;-72
2022/08/15 06:22:29;;;;;;;5.65;2.35;;;20.30;99.90;;;;;;4821962;29;88085;-70
2022/08/15 06:25:27;;;;;;;3.90;1.92;;;20.60;99.90;;;;;;4824589;29;87231;-73
2022/08/15 06:28:20;;;;;;;5.03;1.50;;;21.30;99.90;;;;;;4766853;29;87697;-71
2022/08/15 06:31:02;;;;;;;4.97;1.83;;;23.60;99.40;;;;;;4826734;29;86669;-70
2022/08/15 06:33:48;;;;;;;2.58;1.38;;;24.90;88.90;;;;;;4834398;29;86741;-70
2022/08/15 06:36:21;;;;;;;6.07;1.90;;;24.30;87.60;;;;;;4827273;29;87400;-72
2022/08/15 06:39:01;;;;;;;5.72;1.70;;;23.90;89.20;;;;;;4819109;29;86637;-72
2022/08/15 06:41:33;;;;;;;4.10;1.92;;;24.20;87.90;;;;;;4827779;29;86773;-70
2022/08/15 06:44:00;;;;;;;4.15;1.80;;;26.10;82.70;;;;;;4835987;29;88460;-70
2022/08/15 06:46:32;;;;;;;3.75;2.00;;;26.80;78.60;;;;;;4827267;29;86943;-71
2022/08/15 06:49:03;;;;;;;4.68;2.15;;;27.10;72.80;;;;;;4824335;29;86806;-70
2022/08/15 06:51:31;;;;;;;3.53;1.98;;;28.90;71.60;;;;;;4828372;29;87687;-70
2022/08/15 06:53:59;;;;;;;5.65;2.65;;;30.60;64.30;;;;;;4826857;29;87645;-70
2022/08/15 06:56:33;;;;;;;5.18;2.45;;;28.10;65.70;;;;;;4826701;29;87148;-70
2022/08/15 06:59:21;;;;;;;5.15;2.40;;;25.30;75.30;;;;;;4834502;29;86254;-71
2022/08/15 07:02:09;;;;;;;3.40;2.10;;;23.90;81.70;;;;;;4828760;29;86320;-71
2022/08/15 07:05:13;;;;;;;4.15;2.33;;;23.70;83.20;;;;;;4822794;29;87284;-73
2022/08/15 07:07:50;;;;;;;3.45;1.80;;;25.40;77.40;;;;;;4824166;29;87402;-71
2022/08/15 07:10:44;;;;;;;3.85;2.25;;;28.10;73.30;;;;;;4827049;29;87216;-71
2022/08/15 07:13:33;;;;;;;5.93;1.75;;;30.40;65.60;;;;;;4823869;29;85997;-71
2022/08/15 07:16:13;;;;;;;4.50;2.20;;;30.00;62.90;;;;;;4825234;29;86638;-72
2022/08/15 07:18:52;;;;;;;5.38;2.38;;;29.50;63.60;;;;;;4831797;29;87245;-71
2022/08/15 07:21:22;;;;;;;4.30;2.20;;;30.70;61.80;;;;;;4826631;29;87933;-73
2022/08/15 07:24:15;;;;;;;7.88;2.08;;;30.60;58.20;;;;;;4826766;29;86693;-71
2022/08/15 07:26:55;;;;;;;4.85;1.63;;;28.30;63.30;;;;;;4827850;29;87538;-71
2022/08/15 07:29:48;;;;;;;3.10;1.55;;;27.40;65.90;;;;;;4826385;29;87510;-71
2022/08/15 07:32:20;;;;;;;3.70;1.80;;;26.80;67.10;;;;;;4821671;29;86707;-71
2022/08/15 07:35:16;;;;;;;4.72;1.85;;;26.30;67.90;;;;;;4827203;29;86932;-72
2022/08/15 07:37:48;;;;;;;4.90;2.03;;;27.40;69.00;;;;;;4824926;29;88389;-72
2022/08/15 07:40:18;;;;;;;4.40;1.85;;;31.50;61.60;;;;;;4828178;29;86256;-72
2022/08/15 07:42:45;;;;;;;5.15;2.45;;;35.40;54.30;;;;;;4821863;29;86728;-71
2022/08/15 07:45:33;;;;;;;6.82;2.45;;;38.50;48.80;;;;;;4825299;29;86993;-69
2022/08/15 07:48:29;;;;;;;3.95;2.17;;;40.30;45.00;;;;;;4822374;29;89980;-70
2022/08/15 07:51:05;;;;;;;5.78;1.88;;;41.20;43.00;;;;;;4821755;29;89519;-69
2022/08/15 07:53:31;;;;;;;6.70;2.15;;;41.80;41.30;;;;;;4820322;29;86487;-71
2022/08/15 07:56:10;;;;;;;3.33;2.28;;;42.40;40.20;;;;;;4821938;29;86951;-72
2022/08/15 07:58:36;;;;;;;3.72;2.78;;;42.40;40.00;;;;;;4824974;29;86762;-71
2022/08/15 08:01:23;;;;;;;3.75;2.78;;;42.50;40.10;;;;;;4823373;29;88530;-72
2022/08/15 08:04:09;;;;;;;;;;;43.20;38.20;;;;;;4820148;29;86749;-69
2022/08/15 08:06:40;;;;;;;3.88;2.38;;;43.40;38.10;;;;;;4827379;29;85585;-70
2022/08/15 08:09:33;;;;;;;5.95;2.95;;;43.20;38.20;;;;;;4819812;29;87350;-68
2022/08/15 08:12:25;;;;;;;4.25;2.78;;;43.70;36.60;;;;;;4822293;29;88059;-71
2022/08/15 08:15:08;;;;;;;4.53;3.45;;;44.50;35.50;;;;;;4820629;29;87187;-69
2022/08/15 08:17:41;;;;;;;5.25;3.80;;;45.10;35.10;;;;;;4823728;29;86301;-71
2022/08/15 08:20:21;;;;;;;3.50;3.20;;;45.40;35.50;;;;;;4821918;29;87024;-72
2022/08/15 08:23:04;;;;;;;4.45;3.22;;;45.80;35.30;;;;;;4824429;29;88228;-72
2022/08/15 08:25:50;;;;;;;3.95;3.17;;;46.60;33.70;;;;;;4826353;29;87093;-71
2022/08/15 08:28:34;;;;;;;5.00;3.10;;;46.30;33.90;;;;;;4822164;29;86650;-69
2022/08/15 08:31:27;;;;;;;4.70;3.13;;;46.80;34.00;;;;;;4824261;29;87227;-73
2022/08/15 08:34:44;;;;;;;3.95;3.20;;;47.70;33.30;;;;;;4824684;29;86980;-70
2022/08/15 08:37:21;;;;;;;5.68;5.07;;;48.10;32.90;;;;;;4812332;29;86593;-71
2022/08/15 08:39:53;;;;;;;5.20;4.75;;;47.70;32.10;;;;;;4821308;29;86340;-70
2022/08/15 08:42:46;;;;;;;4.55;3.97;;;47.30;32.40;;;;;;4822081;29;89582;-71
2022/08/15 08:45:38;;;;;;;4.75;4.25;;;46.20;33.80;;;;;;4825902;29;87235;-71
2022/08/15 08:48:58;;;;;;;4.82;3.30;;;45.90;33.00;;;;;;4824904;29;86687;-73
2022/08/15 08:51:34;;;;;;;5.18;4.70;;;46.60;33.40;;;;;;4783197;29;88513;-71
2022/08/15 08:54:05;;;;;;;5.35;4.25;;;46.20;33.80;;;;;;4819057;29;89000;-70
2022/08/15 08:56:45;;;;;;;5.57;4.88;;;46.20;33.80;;;;;;4823890;29;88921;-76
2022/08/15 08:59:44;;;;;;;4.97;3.53;;;46.40;32.30;;;;;;4822475;29;86346;-72
2022/08/15 09:02:27;;;;;;;6.38;4.65;;;44.90;34.60;;;;;;4820296;29;86066;-70
2022/08/15 09:04:59;;;;;;;6.00;4.30;;;45.00;34.30;;;;;;4823618;29;88521;-72
2022/08/15 09:07:30;;;;;;;4.55;3.75;;;44.70;34.50;;;;;;4824014;29;86513;-69
2022/08/15 09:10:00;;;;;;;5.70;4.13;;;46.10;33.30;;;;;;4819660;29;87362;-70
2022/08/15 09:15:26;;;;;;;4.82;4.28;;;44.10;35.10;;;;;;4824149;29;87005;-72
2022/08/15 09:17:58;;;;;;;4.25;3.85;;;45.10;33.70;;;;;;4824821;29;86705;-70
2022/08/15 09:20:32;;;;;;;6.65;3.40;;;45.10;32.90;;;;;;4824940;29;86635;-69
2022/08/15 09:22:59;;;;;;;3.97;3.55;;;45.80;33.30;;;;;;4823743;29;86755;-70
2022/08/15 09:25:29;;;;;;;4.18;2.83;;;44.90;33.10;;;;;;4821293;29;87269;-73
2022/08/15 09:28:27;;;;;;;6.97;4.18;;;45.10;32.60;;;;;;4825710;29;86191;-71
2022/08/15 09:30:54;;;;;;;5.20;3.70;;;46.40;33.30;;;;;;4791529;29;86508;-70
2022/08/15 09:33:29;;;;;;;3.83;3.20;;;47.40;30.70;;;;;;4821962;29;86290;-71
2022/08/15 09:35:58;;;;;;;5.57;4.75;;;47.60;32.90;;;;;;4824354;29;88937;-73
2022/08/15 09:38:56;;;;;;;4.28;3.88;;;48.50;30.90;;;;;;4823948;29;89194;-73
2022/08/15 09:42:10;;;;;;;5.47;3.88;;;47.40;32.20;;;;;;4821571;29;86402;-72
2022/08/15 09:44:38;;;;;;;6.50;4.10;;;49.20;30.90;;;;;;4794777;29;86628;-72
2022/08/15 09:47:49;;;;;;;4.93;4.53;;;51.70;30.30;;;;;;4819927;29;86595;-72
2022/08/15 09:50:20;;;;;;;5.93;5.40;;;52.20;29.00;;;;;;4816472;29;86531;-72
2022/08/15 09:53:10;;;;;;;6.82;6.10;;;50.80;30.40;;;;;;4822786;29;86941;-73
2022/08/15 09:55:44;;;;;;;5.68;5.18;;;50.60;29.90;;;;;;4824644;29;85684;-73
2022/08/15 09:58:31;;;;;;;6.57;5.95;;;47.30;32.20;;;;;;4823947;29;88122;-72
2022/08/15 10:01:18;;;;;;;6.40;5.80;;;48.70;31.10;;;;;;4825159;29;87733;-66
2022/08/15 10:03:44;;;;;;;7.03;6.40;;;50.20;29.70;;;;;;4818324;29;87898;-73
2022/08/15 10:06:14;;;;;;;5.93;5.32;;;49.20;29.40;;;;;;4824078;29;86879;-74
2022/08/15 10:08:54;;;;;;;4.80;4.30;;;48.30;29.20;;;;;;4822483;29;87396;-71
2022/08/15 10:11:31;;;;;;;;;;;45.40;31.20;;;;;;4817959;29;86954;-74
2022/08/15 10:14:06;;;;;;;4.30;3.33;;;43.10;32.10;;;;;;4821188;29;86687;-74
2022/08/15 10:16:40;;;;;;;3.42;2.90;;;41.70;34.00;;;;;;4823213;29;86383;-72
2022/08/15 10:19:09;;;;;;;3.50;2.88;;;39.60;34.80;;;;;;4819764;29;87241;-72
2022/08/15 10:21:58;;;;;;;4.00;3.05;;;37.70;37.10;;;;;;4824236;29;88347;-73
2022/08/15 10:24:33;;;;;;;4.22;3.03;;;36.50;37.60;;;;;;4824569;29;87005;-76
2022/08/15 10:27:08;;;;;;;5.10;2.80;;;33.50;41.00;;;;;;4826859;29;87080;-76
2022/08/15 10:29:40;;;;;;;2.80;2.08;;;32.00;43.80;;;;;;4826539;29;90138;-75
2022/08/15 10:32:37;;;;;;;4.47;2.45;;;30.50;46.70;;;;;;4826059;29;87058;-75
2022/08/15 10:35:06;;;;;;;2.88;1.75;;;29.80;47.40;;;;;;4823921;29;86924;-77
2022/08/15 10:37:51;;;;;;;2.00;1.60;;;28.80;50.60;;;;;;4826317;29;86560;-73
2022/08/15 10:40:36;;;;;;;3.03;1.85;;;28.80;50.90;;;;;;4823092;29;89379;-74
2022/08/15 10:43:25;;;;;;;3.70;1.80;;;28.90;48.10;;;;;;4823655;29;88332;-75
2022/08/15 10:46:17;;;;;;;2.42;1.38;;;28.50;52.20;;;;;;4824894;29;86943;-77
2022/08/15 10:49:02;;;;;;;2.55;1.33;;;28.80;53.40;;;;;;4827062;29;85696;-75
2022/08/15 10:51:54;;;;;;;3.58;1.55;;;29.30;49.90;;;;;;4826691;29;88171;-75
2022/08/15 10:54:48;;;;;;;2.38;1.20;;;28.40;51.20;;;;;;4815215;29;87097;-75
2022/08/15 10:57:19;;;;;;;3.08;1.05;;;28.50;50.60;;;;;;4815278;29;87615;-74
2022/08/15 10:59:52;;;;;;;2.53;1.75;;;28.40;49.50;;;;;;4825756;29;88032;-69
2022/08/15 11:02:43;;;;;;;2.45;1.02;;;28.30;49.10;;;;;;4826052;29;88191;-76
2022/08/15 11:05:12;;;;;;;2.33;1.35;;;28.20;50.30;;;;;;4823504;29;87081;-76
2022/08/15 11:07:47;;;;;;;3.63;1.08;;;28.10;53.20;;;;;;4826852;29;87102;-74
2022/08/15 11:10:15;;;;;;;2.60;1.08;;;28.40;53.00;;;;;;4821151;29;86931;-76
2022/08/15 11:12:48;;;;;;;2.22;1.08;;;28.50;49.20;;;;;;4821435;29;89998;-72
2022/08/15 11:15:25;;;;;;;2.13;1.10;;;28.10;50.90;;;;;;4825600;29;88418;-75
2022/08/15 11:18:04;;;;;;;2.22;1.17;;;27.40;53.20;;;;;;4826189;29;86902;-73
2022/08/15 11:20:42;;;;;;;4.35;1.40;;;27.20;54.30;;;;;;4825889;29;86329;-68
2022/08/15 11:23:09;;;;;;;2.58;0.85;;;26.80;55.70;;;;;;4819590;29;89844;-73
2022/08/15 11:25:43;;;;;;;2.75;0.95;;;27.30;55.00;;;;;;4820849;29;87189;-73
2022/08/15 11:28:24;;;;;;;3.13;1.35;;;27.70;53.50;;;;;;4817827;29;86538;-70
2022/08/15 11:31:01;;;;;;;4.22;1.52;;;27.90;52.10;;;;;;4829442;29;88383;-74
2022/08/15 11:33:42;;;;;;;3.25;1.58;;;27.90;53.40;;;;;;4823967;29;88032;-74
2022/08/15 11:36:22;;;;;;;4.10;1.55;;;27.60;55.00;;;;;;4818325;29;87750;-68
2022/08/15 11:39:11;;;;;;;1.65;0.90;;;27.70;56.30;;;;;;4823780;29;86525;-72
2022/08/15 11:41:41;;;;;;;3.63;1.27;;;28.00;55.80;;;;;;4832467;29;85875;-73
2022/08/15 11:44:10;;;;;;;8.18;1.13;;;28.00;55.40;;;;;;4820666;29;87288;-72
2022/08/15 11:46:36;;;;;;;;;;;28.10;55.50;;;;;;4825524;29;87015;-73
2022/08/15 11:49:09;;;;;;;3.35;1.20;;;28.00;56.90;;;;;;4827531;29;88001;-72
2022/08/15 11:51:40;;;;;;;4.03;1.00;;;28.10;55.10;;;;;;4824461;29;86845;-74
2022/08/15 11:54:11;;;;;;;3.60;1.52;;;27.90;53.60;;;;;;4822214;29;88661;-72
2022/08/15 11:56:49;;;;;;;5.28;1.40;;;27.80;56.80;;;;;;4821292;29;87008;-73
2022/08/15 11:59:31;;;;;;;3.45;1.33;;;27.80;55.60;;;;;;4829290;29;87181;-74
2022/08/15 12:02:19;;;;;;;5.15;1.27;;;27.90;54.90;;;;;;4824981;29;87483;-72
2022/08/15 12:04:46;;;;;;;10.15;1.20;;;28.00;55.30;;;;;;4819658;29;87385;-73
2022/08/15 12:07:29;;;;;;;9.48;1.30;;;27.90;55.40;;;;;;4824475;29;88091;-74
2022/08/15 12:10:04;;;;;;;2.72;1.05;;;28.00;54.90;;;;;;4822713;29;86365;-72
2022/08/15 12:12:45;;;;;;;3.35;1.23;;;27.80;51.20;;;;;;4823306;29;87498;-71
2022/08/15 12:15:11;;;;;;;3.65;1.25;;;27.80;52.20;;;;;;4818489;29;88227;-72
2022/08/15 12:17:37;;;;;;;2.67;1.00;;;27.60;52.00;;;;;;4823037;29;87948;-69
2022/08/15 12:20:04;;;;;;;2.45;1.00;;;27.40;51.40;;;;;;4822221;29;86888;-68
2022/08/15 12:22:33;;;;;;;3.45;1.10;;;27.40;51.60;;;;;;4825999;29;86298;-74
2022/08/15 12:25:00;;;;;;;1.85;0.70;;;27.50;51.90;;;;;;4826875;29;86518;-75
2022/08/15 12:27:25;;;;;;;2.33;1.02;;;27.60;51.90;;;;;;4824516;29;87141;-75
2022/08/15 12:29:51;;;;;;;4.43;0.60;;;27.60;53.00;;;;;;4828098;29;86413;-78
2022/08/15 12:32:19;;;;;;;3.17;1.23;;;27.40;51.80;;;;;;4821211;29;86667;-69
2022/08/15 12:34:47;;;;;;;2.10;1.00;;;27.50;52.60;;;;;;4823881;29;89104;-74
2022/08/15 12:37:17;;;;;;;2.63;0.95;;;27.60;51.40;;;;;;4823623;29;86348;-70
2022/08/15 12:39:49;;;;;;;3.78;0.70;;;27.80;52.50;;;;;;4828236;29;88743;-74
2022/08/15 12:42:28;;;;;;;6.22;0.90;;;27.70;51.30;;;;;;4824230;29;86823;-73
2022/08/15 12:44:57;;;;;;;3.63;0.95;;;27.40;49.80;;;;;;4819290;29;87770;-76
2022/08/15 12:47:26;;;;;;;4.18;0.80;;;27.50;50.10;;;;;;4822379;29;87357;-73
2022/08/15 12:49:52;;;;;;;4.22;0.80;;;27.50;49.10;;;;;;4824476;29;87052;-73
2022/08/15 12:52:19;;;;;;;3.13;0.80;;;27.50;51.60;;;;;;4822146;29;86253;-73
2022/08/15 12:54:47;;;;;;;4.22;0.93;;;27.50;51.00;;;;;;4824543;29;86663;-76
2022/08/15 12:57:12;;;;;;;3.95;0.93;;;27.40;51.50;;;;;;4823407;29;86257;-76
2022/08/15 12:59:39;;;;;;;3.70;0.88;;;27.40;51.10;;;;;;4824238;29;86530;-75
2022/08/15 13:02:05;;;;;;;3.10;0.60;;;27.60;48.20;;;;;;4823295;29;86370;-70
2022/08/15 13:04:31;;;;;;;3.53;0.73;;;27.50;50.00;;;;;;4822693;29;88060;-75
2022/08/15 13:06:59;;;;;;;3.03;0.77;;;27.70;50.00;;;;;;4824371;29;88272;-76
2022/08/15 13:09:29;;;;;;;2.50;0.90;;;27.80;50.80;;;;;;4825671;29;86329;-69
2022/08/15 13:11:55;;;;;;;3.15;0.90;;;27.60;51.30;;;;;;4823920;29;86937;-73
2022/08/15 13:14:21;;;;;;;3.30;0.63;;;27.60;52.80;;;;;;4822038;29;88293;-76
2022/08/15 13:16:49;;;;;;;2.33;1.02;;;27.60;52.30;;;;;;4820179;29;86864;-76
2022/08/15 13:23:35;;;;;;;1.98;0.70;;;27.50;52.50;;;;;;4823413;29;86660;-75
2022/08/15 13:25:08;;;;;;;3.17;0.77;;;27.60;54.00;;;;;;4823464;29;88313;-75
2022/08/15 13:27:35;;;;;;;2.25;0.65;;;27.80;52.80;;;;;;4822901;29;87199;-77
2022/08/15 13:30:05;;;;;;;1.48;0.90;;;27.60;52.00;;;;;;4824226;29;87607;-74
2022/08/15 13:32:31;;;;;;;2.97;0.75;;;27.80;52.10;;;;;;4826127;29;87047;-72
2022/08/15 13:34:56;;;;;;;1.83;0.60;;;27.80;51.20;;;;;;4821643;29;88884;-74
2022/08/15 13:37:25;;;;;;;5.03;0.73;;;27.60;51.70;;;;;;4816084;29;86934;-71
2022/08/15 13:39:53;;;;;;;1.60;0.75;;;27.50;51.00;;;;;;4818830;29;87068;-74
2022/08/15 13:42:19;;;;;;;2.13;0.77;;;27.60;51.30;;;;;;4818375;29;88115;-74
2022/08/15 13:44:45;;;;;;;2.13;0.57;;;27.80;51.30;;;;;;4822069;29;87286;-76
2022/08/15 13:47:18;;;;;;;4.15;0.75;;;27.60;51.80;;;;;;4817925;29;87020;-76
2022/08/15 13:49:44;;;;;;;3.55;0.90;;;27.50;51.00;;;;;;4823877;29;86335;-75
2022/08/15 13:52:10;;;;;;;2.72;0.68;;;27.40;51.50;;;;;;4820490;29;86878;-73
2022/08/15 13:54:36;;;;;;;2.53;0.77;;;27.20;53.00;;;;;;4821720;29;88278;-73
2022/08/15 13:57:02;;;;;;;2.40;0.82;;;27.30;52.50;;;;;;4825231;29;88203;-73
2022/08/15 13:59:30;;;;;;;3.00;0.88;;;27.30;52.70;;;;;;4820331;29;88152;-75
2022/08/15 14:01:56;;;;;;;6.07;1.27;;;27.30;53.00;;;;;;4823658;29;86834;-74
2022/08/15 14:04:35;;;;;;;3.22;0.70;;;27.10;52.60;;;;;;4820845;29;87980;-76
2022/08/15 14:07:01;;;;;;;3.13;0.70;;;27.00;53.20;;;;;;4827767;29;86857;-73
2022/08/15 14:09:28;;;;;;;3.97;1.02;;;26.80;52.90;;;;;;4822457;29;87230;-75
2022/08/15 14:11:55;;;;;;;4.40;0.85;;;26.80;53.90;;;;;;4822519;29;86667;-77
2022/08/15 14:14:21;;;;;;;3.50;0.65;;;26.80;53.40;;;;;;4825817;29;86634;-75
2022/08/15 14:16:47;;;;;;;1.92;0.60;;;26.90;53.20;;;;;;4820597;29;86416;-75
2022/08/15 14:19:16;;;;;;;4.65;0.90;;;26.80;53.20;;;;;;4817726;29;87317;-71
2022/08/15 14:21:44;;;;;;;2.83;0.65;;;26.60;54.10;;;;;;4820843;29;86933;-72
2022/08/15 14:24:10;;;;;;;4.93;0.50;;;26.60;52.40;;;;;;4824780;29;87206;-73
2022/08/15 14:26:46;;;;;;;2.25;0.50;;;26.50;53.40;;;;;;4824820;29;86834;-74
2022/08/15 14:29:39;;;;;;;2.58;0.73;;;26.40;52.20;;;;;;4820158;29;86746;-74
2022/08/15 14:32:09;;;;;;;1.90;0.65;;;26.40;52.20;;;;;;4822633;29;86630;-70
2022/08/15 14:34:35;;;;;;;2.35;1.15;;;26.30;53.60;;;;;;4821530;29;88329;-73
2022/08/15 14:37:01;;;;;;;2.22;0.55;;;26.50;53.40;;;;;;4823067;29;87031;-77
2022/08/15 14:39:27;;;;;;;1.92;0.85;;;26.60;54.00;;;;;;4823500;29;86735;-77
2022/08/15 14:41:53;;;;;;;2.97;0.93;;;26.50;54.00;;;;;;4824674;29;86786;-73
2022/08/15 14:44:19;;;;;;;2.92;0.90;;;26.50;54.20;;;;;;4821423;29;89048;-73
2022/08/15 14:46:45;;;;;;;2.67;0.73;;;26.50;54.00;;;;;;4818945;29;87118;-73
2022/08/15 14:49:12;;;;;;;4.63;0.55;;;26.40;54.40;;;;;;4817386;29;87064;-74
2022/08/15 14:51:40;;;;;;;4.57;0.77;;;26.30;54.20;;;;;;4820303;29;87068;-75
2022/08/15 14:54:08;;;;;;;2.20;0.60;;;26.50;55.20;;;;;;4827859;29;87565;-75
2022/08/15 14:56:36;;;;;;;3.35;0.60;;;26.60;55.70;;;;;;4824180;29;87001;-76
2022/08/15 14:59:04;;;;;;;4.38;0.57;;;26.60;55.80;;;;;;4823238;29;86909;-68
2022/08/15 15:01:31;;;;;;;6.60;0.70;;;26.60;57.20;;;;;;4826460;29;85678;-75
2022/08/15 15:03:59;;;;;;;3.47;0.90;;;26.40;60.90;;;;;;4826830;29;88324;-76
2022/08/15 15:06:26;;;;;;;3.97;0.82;;;25.70;60.20;;;;;;4821337;29;88302;-68
2022/08/15 15:08:56;;;;;;;6.90;1.15;;;25.40;60.90;;;;;;4823624;29;87967;-69
2022/08/15 15:11:22;;;;;;;2.42;0.80;;;25.00;62.20;;;;;;4823365;29;86628;-71
2022/08/15 15:13:49;;;;;;;5.38;0.90;;;24.20;65.10;;;;;;4830859;29;86519;-76
2022/08/15 15:16:25;;;;;;;4.32;0.80;;;23.90;65.50;;;;;;4820304;29;88104;-76
2022/08/15 15:18:51;;;;;;;;;;;23.80;67.10;;;;;;4818935;29;88499;-78
2022/08/15 15:21:17;;;;;;;4.30;0.70;;;23.70;68.70;;;;;;4826222;29;86424;-78
2022/08/15 15:23:45;;;;;;;2.67;0.50;;;23.40;69.40;;;;;;4820742;29;88668;-74
2022/08/15 15:26:12;;;;;;;3.55;0.50;;;23.30;69.10;;;;;;4826309;29;86179;-77
2022/08/15 15:28:41;;;;;;;1.23;0.30;;;23.00;70.40;;;;;;4826892;29;88347;-75
2022/08/15 15:31:08;;;;;;;1.85;0.20;;;22.80;70.40;;;;;;4823342;29;87228;-75
2022/08/15 15:33:33;;;;;;;2.88;0.40;;;22.50;71.60;;;;;;4821799;29;89000;-72
2022/08/15 15:36:09;;;;;;;2.40;0.40;;;22.40;72.60;;;;;;4822466;29;87767;-77
2022/08/15 15:38:37;;;;;;;4.25;0.57;;;21.70;76.70;;;;;;4826037;29;86715;-75
2022/08/15 15:41:03;;;;;;;2.72;0.52;;;21.30;79.10;;;;;;4824189;29;87512;-77
2022/08/15 15:43:29;;;;;;;3.15;0.63;;;21.00;81.50;;;;;;4825729;29;86734;-77
2022/08/15 15:45:57;;;;;;;2.42;0.50;;;21.10;84.20;;;;;;4823705;29;87248;-74
2022/08/15 15:48:23;;;;;;;5.43;0.73;;;21.20;82.60;;;;;;4825294;29;86963;-75
2022/08/15 15:50:49;;;;;;;5.18;0.70;;;21.00;85.70;;;;;;4822184;29;87493;-73
2022/08/15 15:53:26;;;;;;;2.20;0.52;;;20.80;85.70;;;;;;4823384;29;87281;-72
2022/08/15 15:55:52;;;;;;;3.35;0.80;;;20.80;88.80;;;;;;4822572;29;86972;-73
2022/08/15 15:58:18;;;;;;;4.88;0.90;;;21.00;90.00;;;;;;4821442;29;87285;-74
2022/08/15 16:00:47;;;;;;;2.53;0.75;;;21.00;90.60;;;;;;4828978;29;86803;-76
2022/08/15 16:03:16;;;;;;;7.25;0.80;;;21.00;90.70;;;;;;4817963;29;87191;-73
2022/08/15 16:05:48;;;;;;;5.80;0.65;;;21.10;90.60;;;;;;4819792;29;87110;-75
2022/08/15 16:08:17;;;;;;;1.95;0.50;;;21.10;89.50;;;;;;4822599;29;87069;-74
2022/08/15 16:10:54;;;;;;;2.65;0.65;;;21.10;90.50;;;;;;4819731;29;86771;-74
2022/08/15 16:13:31;;;;;;;2.47;0.80;;;21.00;91.70;;;;;;4820039;29;88258;-77